Time;durP1;ratioP1;P1;durP2;ratioP2;P2;SDS_P1;SDS_P2;PMS_P1;PMS_P2;Temp;Humidity;BMP_temperature;BMP_pressure;BME280_temperature;BME280_humidity;BME280_pressure;Samples;Min_cycle;Max_cycle;Signal;HPM_P1;HPM_P2
2021/07/09 00:02:16;;;;;;;12.23;4.47;;;23.30;60.70;;;;;;1948634;74;21086;-48
2021/07/09 00:04:46;;;;;;;6.87;3.60;;;23.20;60.60;;;;;;1948801;74;21480;-50
2021/07/09 00:07:15;;;;;;;6.40;3.30;;;23.10;60.90;;;;;;1948693;74;21084;-47
2021/07/09 00:09:47;;;;;;;8.85;3.47;;;23.10;61.10;;;;;;1948628;74;21078;-49
2021/07/09 00:12:16;;;;;;;4.03;3.10;;;23.10;61.30;;;;;;1913081;74;20995;-50
2021/07/09 00:14:46;;;;;;;7.80;4.28;;;23.10;61.30;;;;;;1948754;74;21194;-48
2021/07/09 00:17:15;;;;;;;7.60;3.35;;;23.00;61.30;;;;;;1948736;74;21128;-47
2021/07/09 00:19:45;;;;;;;9.20;3.90;;;23.00;61.70;;;;;;1948650;74;21131;-50
2021/07/09 00:22:14;;;;;;;4.67;3.00;;;23.00;62.00;;;;;;1948662;74;21330;-49
2021/07/09 00:24:44;;;;;;;6.62;3.47;;;22.90;62.20;;;;;;1948647;74;21089;-48
2021/07/09 00:27:13;;;;;;;12.68;4.08;;;22.90;62.00;;;;;;1948739;74;21050;-47
2021/07/09 00:29:42;;;;;;;4.70;3.77;;;22.90;62.20;;;;;;1948766;74;21085;-48
2021/07/09 00:32:12;;;;;;;5.70;3.70;;;22.90;62.40;;;;;;1942844;74;21058;-50
2021/07/09 00:34:42;;;;;;;6.40;3.98;;;22.80;62.20;;;;;;1935618;74;21031;-48
2021/07/09 00:37:11;;;;;;;5.25;3.25;;;22.80;62.30;;;;;;1935607;74;21305;-50
2021/07/09 00:39:40;;;;;;;6.53;3.20;;;22.70;62.70;;;;;;1935772;74;21098;-49
2021/07/09 00:42:10;;;;;;;7.33;3.25;;;22.70;62.80;;;;;;1935762;74;20995;-49
2021/07/09 00:44:39;;;;;;;4.95;3.27;;;22.60;62.70;;;;;;1935702;74;21023;-49
2021/07/09 00:47:08;;;;;;;4.72;2.90;;;22.60;63.00;;;;;;1935649;74;21039;-48
2021/07/09 00:49:38;;;;;;;7.35;3.27;;;22.60;62.80;;;;;;1935633;74;21019;-51
2021/07/09 00:52:07;;;;;;;5.50;3.10;;;22.50;62.90;;;;;;1935642;74;21083;-51
2021/07/09 00:54:37;;;;;;;10.80;3.87;;;22.50;63.00;;;;;;1935783;74;21024;-49
2021/07/09 00:57:07;;;;;;;7.42;3.00;;;22.50;63.20;;;;;;1935850;74;21027;-50
2021/07/09 00:59:36;;;;;;;7.30;3.15;;;22.50;63.40;;;;;;1935714;74;21015;-48
2021/07/09 01:02:06;;;;;;;11.50;3.55;;;22.40;63.80;;;;;;1935606;74;20995;-47
2021/07/09 01:04:35;;;;;;;7.60;4.03;;;22.50;64.00;;;;;;1935657;74;21078;-48
2021/07/09 01:07:06;;;;;;;18.20;4.17;;;22.40;63.80;;;;;;1935633;74;21070;-49
2021/07/09 01:09:35;;;;;;;14.13;3.60;;;22.30;63.60;;;;;;1935621;74;21046;-47
2021/07/09 01:12:05;;;;;;;5.85;3.25;;;22.30;63.70;;;;;;1935748;74;21556;-48
2021/07/09 01:14:35;;;;;;;7.80;3.40;;;22.20;64.10;;;;;;1935741;74;21063;-51
2021/07/09 01:17:04;;;;;;;4.22;3.30;;;22.20;64.40;;;;;;1935669;74;21004;-49
2021/07/09 01:19:34;;;;;;;8.03;4.87;;;22.10;64.70;;;;;;1935762;74;21028;-50
2021/07/09 01:22:05;;;;;;;6.85;3.77;;;22.10;64.20;;;;;;1935746;74;21015;-48
2021/07/09 01:24:35;;;;;;;7.53;3.70;;;22.00;64.20;;;;;;1935786;74;21469;-48
2021/07/09 01:27:05;;;;;;;10.60;5.95;;;22.00;64.40;;;;;;1935619;74;21031;-48
2021/07/09 01:29:35;;;;;;;10.68;4.08;;;21.90;64.60;;;;;;1935763;74;21101;-49
2021/07/09 01:32:04;;;;;;;11.48;3.77;;;21.90;64.90;;;;;;1935620;74;21003;-48
2021/07/09 01:34:33;;;;;;;14.20;3.62;;;21.90;65.10;;;;;;1935568;74;21124;-50
2021/07/09 01:37:17;;;;;;;8.78;3.87;;;21.80;65.20;;;;;;1935706;74;21539;-48
2021/07/09 01:39:46;;;;;;;7.22;3.85;;;21.70;65.20;;;;;;1935670;74;21011;-50
2021/07/09 01:42:16;;;;;;;5.22;3.42;;;21.70;65.40;;;;;;1935585;74;21085;-48
2021/07/09 01:44:47;;;;;;;7.30;3.62;;;21.60;65.70;;;;;;1935634;74;21066;-47
2021/07/09 01:47:16;;;;;;;7.83;4.67;;;21.60;66.00;;;;;;1935634;74;21032;-47
2021/07/09 01:50:00;;;;;;;8.70;3.85;;;21.60;65.50;;;;;;1935606;74;21133;-50
2021/07/09 01:52:29;;;;;;;10.88;4.22;;;21.60;65.70;;;;;;1934546;74;21183;-51
2021/07/09 01:54:59;;;;;;;9.35;4.70;;;21.60;65.40;;;;;;1935643;74;21023;-50
2021/07/09 01:57:29;;;;;;;5.45;3.62;;;21.60;65.70;;;;;;1935656;74;21073;-50
2021/07/09 02:00:00;;;;;;;9.55;4.53;;;21.60;65.90;;;;;;1935749;74;21015;-51
2021/07/09 02:02:29;;;;;;;12.53;5.50;;;21.60;65.70;;;;;;1935590;74;21087;-50
2021/07/09 02:04:58;;;;;;;12.18;4.30;;;21.60;65.70;;;;;;1935650;74;20999;-51
2021/07/09 02:07:28;;;;;;;9.08;4.65;;;21.60;65.70;;;;;;1935618;74;21019;-49
2021/07/09 02:09:58;;;;;;;9.40;4.33;;;21.60;65.90;;;;;;1935722;74;21080;-49
2021/07/09 02:12:29;;;;;;;6.87;4.22;;;21.60;65.80;;;;;;1935740;74;21022;-49
2021/07/09 02:14:59;;;;;;;13.83;4.47;;;21.50;65.90;;;;;;1935615;74;21093;-49
2021/07/09 02:17:29;;;;;;;10.08;5.10;;;21.50;65.90;;;;;;1935755;74;21125;-51
2021/07/09 02:19:59;;;;;;;11.38;4.65;;;21.50;65.90;;;;;;1935668;74;21078;-51
2021/07/09 02:22:29;;;;;;;7.53;4.28;;;21.60;65.90;;;;;;1935581;74;21031;-50
2021/07/09 02:24:58;;;;;;;10.00;4.65;;;21.60;66.40;;;;;;1935644;74;21019;-50
2021/07/09 02:27:27;;;;;;;9.20;4.58;;;21.60;66.40;;;;;;1935607;74;21027;-48
2021/07/09 02:29:56;;;;;;;11.00;5.00;;;21.60;66.10;;;;;;1935737;74;21450;-48
2021/07/09 02:32:26;;;;;;;9.80;4.70;;;21.70;65.80;;;;;;1935606;74;21078;-51
2021/07/09 02:34:55;;;;;;;15.55;6.30;;;21.70;65.70;;;;;;1942078;74;21090;-51
2021/07/09 02:37:24;;;;;;;15.28;5.17;;;21.70;65.90;;;;;;1948705;74;21085;-50
2021/07/09 02:39:54;;;;;;;23.10;4.80;;;21.70;65.90;;;;;;1948872;74;21026;-52
2021/07/09 02:42:23;;;;;;;9.60;4.40;;;21.70;65.60;;;;;;1912662;74;21019;-49
2021/07/09 02:44:52;;;;;;;16.30;5.00;;;21.80;65.60;;;;;;1948704;73;21092;-52
2021/07/09 02:47:22;;;;;;;14.00;5.53;;;21.80;65.70;;;;;;1948719;74;21084;-50
2021/07/09 02:49:51;;;;;;;11.80;4.90;;;21.90;65.50;;;;;;1948680;74;21059;-48
2021/07/09 02:52:21;;;;;;;13.32;5.58;;;21.90;65.40;;;;;;1948663;74;21027;-51
2021/07/09 02:54:50;;;;;;;9.90;4.47;;;22.00;65.20;;;;;;1948749;73;21108;-49
2021/07/09 02:57:20;;;;;;;14.33;4.70;;;22.10;65.10;;;;;;1948694;74;21026;-51
2021/07/09 02:59:49;;;;;;;8.10;4.40;;;22.10;64.90;;;;;;1948772;73;21026;-52
2021/07/09 03:02:19;;;;;;;13.58;4.17;;;22.10;64.70;;;;;;1948786;73;21027;-50
2021/07/09 03:04:48;;;;;;;8.70;4.22;;;22.00;64.70;;;;;;1948728;73;21023;-49
2021/07/09 03:07:17;;;;;;;6.65;3.52;;;22.10;64.50;;;;;;1948677;74;21027;-50
2021/07/09 03:09:47;;;;;;;9.13;4.60;;;22.10;64.40;;;;;;1948983;74;21042;-52
2021/07/09 03:12:16;;;;;;;9.35;3.92;;;22.10;64.10;;;;;;1948857;74;21143;-49
2021/07/09 03:14:45;;;;;;;5.90;3.65;;;22.10;64.00;;;;;;1948877;73;21515;-48
2021/07/09 03:17:14;;;;;;;15.03;4.50;;;22.20;63.80;;;;;;1948885;73;20995;-51
2021/07/09 03:19:44;;;;;;;8.08;4.08;;;22.20;63.30;;;;;;1948798;73;21116;-52
2021/07/09 03:22:13;;;;;;;9.73;4.45;;;22.30;63.00;;;;;;1948875;74;21066;-49
2021/07/09 03:24:43;;;;;;;6.42;4.12;;;22.40;62.80;;;;;;1948782;73;21065;-49
2021/07/09 03:27:13;;;;;;;6.40;4.40;;;22.40;63.00;;;;;;1948761;74;20994;-52
2021/07/09 03:29:42;;;;;;;12.05;6.55;;;22.50;62.80;;;;;;1948723;74;21080;-52
2021/07/09 03:32:11;;;;;;;8.33;5.45;;;22.60;62.70;;;;;;1948679;74;20999;-51
2021/07/09 03:34:40;;;;;;;10.30;5.78;;;22.70;61.80;;;;;;1947222;73;21014;-51
2021/07/09 03:37:10;;;;;;;13.48;4.87;;;22.70;61.10;;;;;;1935701;74;21043;-49
2021/07/09 03:39:39;;;;;;;9.08;4.22;;;22.70;60.90;;;;;;1935712;74;21083;-50
2021/07/09 03:42:09;;;;;;;8.88;4.10;;;22.70;61.10;;;;;;1935790;74;21019;-49
2021/07/09 03:44:38;;;;;;;7.15;3.40;;;22.70;60.70;;;;;;1935714;74;21023;-48
2021/07/09 03:47:07;;;;;;;6.92;3.92;;;22.70;59.80;;;;;;1935767;74;21156;-49
2021/07/09 03:49:36;;;;;;;8.85;2.90;;;22.50;60.10;;;;;;1935734;74;21494;-52
2021/07/09 03:52:07;;;;;;;7.80;3.22;;;22.50;60.30;;;;;;1935642;74;21098;-50
2021/07/09 03:54:37;;;;;;;4.42;3.25;;;22.50;59.90;;;;;;1935764;74;21043;-49
2021/07/09 03:57:06;;;;;;;6.00;3.22;;;22.50;59.80;;;;;;1935651;74;21070;-49
2021/07/09 03:59:35;;;;;;;9.85;3.10;;;22.60;60.30;;;;;;1935854;74;21442;-49
2021/07/09 04:02:04;;;;;;;9.83;3.12;;;22.70;60.20;;;;;;1935847;74;21067;-51
2021/07/09 04:04:34;;;;;;;3.75;3.00;;;22.80;59.80;;;;;;1935801;74;21434;-50
2021/07/09 04:07:03;;;;;;;10.20;3.22;;;22.90;59.50;;;;;;1935754;74;21092;-48
2021/07/09 04:09:33;;;;;;;11.20;3.10;;;23.00;59.20;;;;;;1935662;74;21093;-49
2021/07/09 04:12:02;;;;;;;5.70;2.92;;;23.10;59.10;;;;;;1935613;74;21023;-51
2021/07/09 04:14:31;;;;;;;8.18;3.47;;;23.20;59.10;;;;;;1935697;74;20979;-48
2021/07/09 04:17:01;;;;;;;7.53;2.90;;;23.30;58.60;;;;;;1935694;74;21011;-48
2021/07/09 04:19:30;;;;;;;4.42;2.90;;;23.40;58.30;;;;;;1935764;74;20999;-49
2021/07/09 04:22:00;;;;;;;8.90;3.40;;;23.40;58.40;;;;;;1935861;74;21100;-52
2021/07/09 04:24:29;;;;;;;7.58;2.67;;;23.60;58.10;;;;;;1935793;74;21023;-52
2021/07/09 04:26:58;;;;;;;9.05;3.55;;;23.60;57.60;;;;;;1935762;74;21043;-51
2021/07/09 04:29:28;;;;;;;10.95;3.37;;;23.60;57.60;;;;;;1935560;74;21124;-50
2021/07/09 04:31:57;;;;;;;6.40;2.87;;;23.70;57.50;;;;;;1935681;74;21039;-51
2021/07/09 04:34:27;;;;;;;7.22;3.15;;;23.70;57.50;;;;;;1935711;74;21071;-52
2021/07/09 04:36:56;;;;;;;8.48;3.25;;;23.80;57.70;;;;;;1935631;74;21059;-49
2021/07/09 04:39:26;;;;;;;8.28;3.17;;;23.90;57.50;;;;;;1935744;74;21614;-50
2021/07/09 04:41:55;;;;;;;8.78;3.98;;;24.10;57.10;;;;;;1935732;74;21031;-49
2021/07/09 04:44:24;;;;;;;6.05;2.85;;;24.10;57.10;;;;;;1935854;74;21493;-53
2021/07/09 04:46:53;;;;;;;7.37;3.30;;;24.10;56.60;;;;;;1935768;74;21089;-49
2021/07/09 04:49:22;;;;;;;7.55;3.70;;;24.20;56.50;;;;;;1935744;74;21000;-51
2021/07/09 04:51:53;;;;;;;6.00;3.87;;;24.20;56.90;;;;;;1935682;74;20999;-50
2021/07/09 04:54:22;;;;;;;5.87;3.62;;;24.20;56.80;;;;;;1935656;74;21020;-49
2021/07/09 04:56:51;;;;;;;18.25;6.50;;;24.20;56.50;;;;;;1935581;74;21089;-49
2021/07/09 04:59:21;;;;;;;7.60;4.92;;;24.30;56.70;;;;;;1935546;74;21129;-52
2021/07/09 05:01:50;;;;;;;20.05;5.85;;;24.30;57.40;;;;;;1935528;74;21019;-53
2021/07/09 05:04:20;;;;;;;8.55;3.47;;;24.40;56.90;;;;;;1935572;74;21019;-51
2021/07/09 05:06:49;;;;;;;8.75;3.45;;;24.50;56.40;;;;;;1935468;74;21109;-50
2021/07/09 05:09:19;;;;;;;5.95;3.35;;;24.60;56.30;;;;;;1935491;74;21080;-50
2021/07/09 05:11:48;;;;;;;9.65;3.90;;;24.60;56.30;;;;;;1935836;74;21031;-51
2021/07/09 05:14:17;;;;;;;25.68;20.27;;;24.70;56.00;;;;;;1935532;74;21059;-51
2021/07/09 05:16:47;;;;;;;14.53;11.90;;;24.70;55.90;;;;;;1935661;74;21089;-53
2021/07/09 05:19:16;;;;;;;150.60;121.42;;;24.80;56.20;;;;;;1935698;74;21063;-51
2021/07/09 05:21:46;;;;;;;18.45;11.22;;;24.90;55.90;;;;;;1935506;74;21076;-51
2021/07/09 05:24:16;;;;;;;17.42;6.95;;;25.00;55.90;;;;;;1935535;74;21019;-52
2021/07/09 05:26:47;;;;;;;16.07;5.42;;;25.10;55.60;;;;;;1935719;74;21109;-50
2021/07/09 05:29:16;;;;;;;19.00;9.65;;;25.20;55.60;;;;;;1935657;74;21066;-51
2021/07/09 05:31:45;;;;;;;25.27;14.18;;;25.30;55.10;;;;;;1935664;74;21542;-52
2021/07/09 05:34:15;;;;;;;9.63;3.60;;;25.30;55.00;;;;;;1935727;74;21027;-52
2021/07/09 05:36:45;;;;;;;7.87;3.58;;;25.40;54.80;;;;;;1935644;74;21032;-49
2021/07/09 05:39:15;;;;;;;19.55;10.88;;;25.50;54.70;;;;;;1935706;74;21089;-52
2021/07/09 05:41:45;;;;;;;7.85;4.33;;;25.60;54.80;;;;;;1935858;74;20999;-51
2021/07/09 05:44:14;;;;;;;23.57;11.53;;;25.70;54.00;;;;;;1935788;74;21081;-49
2021/07/09 05:46:44;;;;;;;6.95;3.33;;;25.60;54.10;;;;;;1935705;74;21026;-52
2021/07/09 05:49:13;;;;;;;9.18;3.05;;;25.70;54.30;;;;;;1935617;74;21020;-52
2021/07/09 05:51:42;;;;;;;12.33;6.50;;;25.70;53.90;;;;;;1935706;74;21085;-52
2021/07/09 05:54:12;;;;;;;9.20;3.05;;;25.80;54.50;;;;;;1935800;74;21000;-51
2021/07/09 05:56:41;;;;;;;6.80;3.12;;;25.90;54.40;;;;;;1935798;74;21105;-51
2021/07/09 05:59:11;;;;;;;15.95;5.70;;;26.00;53.70;;;;;;1935752;74;21023;-52
2021/07/09 06:01:40;;;;;;;20.55;9.90;;;26.00;53.40;;;;;;1935721;74;21117;-51
2021/07/09 06:04:10;;;;;;;9.70;3.37;;;26.10;53.80;;;;;;1935666;74;21121;-51
2021/07/09 06:06:40;;;;;;;5.25;2.60;;;26.10;53.00;;;;;;1935653;74;21015;-51
2021/07/09 06:09:09;;;;;;;16.97;6.72;;;26.20;53.00;;;;;;1935753;74;21023;-51
2021/07/09 06:11:39;;;;;;;13.88;5.92;;;26.20;53.30;;;;;;1935669;74;21172;-52
2021/07/09 06:14:08;;;;;;;17.73;10.95;;;26.30;53.00;;;;;;1935806;74;21027;-51
2021/07/09 06:16:37;;;;;;;11.83;5.78;;;26.40;53.00;;;;;;1935652;74;20999;-53
2021/07/09 06:19:06;;;;;;;12.43;3.58;;;26.50;53.10;;;;;;1935848;74;21023;-52
2021/07/09 06:21:36;;;;;;;8.33;3.70;;;26.60;53.00;;;;;;1935836;74;21027;-52
2021/07/09 06:24:06;;;;;;;13.75;6.53;;;26.70;52.80;;;;;;1935731;74;21020;-51
2021/07/09 06:26:35;;;;;;;8.23;4.90;;;26.90;52.00;;;;;;1935826;74;20999;-52
2021/07/09 06:29:05;;;;;;;8.13;4.72;;;27.00;51.60;;;;;;1935730;74;20995;-53
2021/07/09 06:31:34;;;;;;;14.28;7.22;;;27.00;51.60;;;;;;1935830;74;21136;-52
2021/07/09 06:34:04;;;;;;;12.35;5.22;;;27.20;51.80;;;;;;1935715;74;21093;-49
2021/07/09 06:36:34;;;;;;;16.12;6.22;;;27.30;51.30;;;;;;1935685;74;21047;-53
2021/07/09 06:39:03;;;;;;;16.55;5.95;;;27.40;49.40;;;;;;1935791;74;21031;-51
2021/07/09 06:41:33;;;;;;;8.75;4.00;;;27.60;48.30;;;;;;1935903;74;21113;-51
2021/07/09 06:44:02;;;;;;;7.65;3.25;;;27.70;46.80;;;;;;1935766;74;20999;-53
2021/07/09 06:46:31;;;;;;;10.53;4.03;;;27.80;46.30;;;;;;1935690;74;21023;-49
2021/07/09 06:49:01;;;;;;;6.75;4.45;;;27.80;44.70;;;;;;1934280;74;21082;-51
2021/07/09 06:51:30;;;;;;;7.03;2.92;;;27.90;44.00;;;;;;1935134;74;21131;-50
2021/07/09 06:53:59;;;;;;;11.68;7.47;;;28.00;43.10;;;;;;1935115;74;21586;-49
2021/07/09 06:56:29;;;;;;;11.25;6.97;;;28.10;42.60;;;;;;1934874;74;21133;-51
2021/07/09 06:58:58;;;;;;;4.80;3.02;;;28.20;42.60;;;;;;1935087;74;21109;-47
2021/07/09 07:01:29;;;;;;;3.70;2.25;;;28.20;42.30;;;;;;1935159;74;21023;-51
2021/07/09 07:03:58;;;;;;;5.08;3.00;;;28.30;40.90;;;;;;1935011;74;21020;-51
2021/07/09 07:06:27;;;;;;;2.80;2.47;;;28.50;40.60;;;;;;1935092;74;21129;-51
2021/07/09 07:08:57;;;;;;;9.98;5.00;;;28.60;40.10;;;;;;1934998;74;21118;-57
2021/07/09 07:11:26;;;;;;;5.85;2.50;;;28.70;40.10;;;;;;1934903;74;21031;-51
2021/07/09 07:13:56;;;;;;;9.48;3.62;;;28.80;39.40;;;;;;1935099;74;21088;-52
2021/07/09 07:16:25;;;;;;;11.12;3.60;;;28.80;38.90;;;;;;1913826;74;21003;-52
2021/07/09 07:18:55;;;;;;;9.35;3.33;;;28.90;38.30;;;;;;1908459;75;21105;-52
2021/07/09 07:21:24;;;;;;;8.33;3.35;;;29.00;38.60;;;;;;1908347;75;21156;-52
2021/07/09 07:23:54;;;;;;;3.72;2.33;;;29.10;38.50;;;;;;1908306;75;21035;-52
2021/07/09 07:26:23;;;;;;;3.80;2.00;;;29.20;37.60;;;;;;1908423;75;21097;-52
2021/07/09 07:28:52;;;;;;;11.80;5.45;;;29.20;37.80;;;;;;1924783;74;21088;-49
2021/07/09 07:31:22;;;;;;;7.47;2.77;;;29.20;38.60;;;;;;1935913;74;21020;-50
2021/07/09 07:33:51;;;;;;;5.50;2.52;;;29.20;38.30;;;;;;1935738;74;20999;-51
2021/07/09 07:36:20;;;;;;;6.65;2.45;;;29.30;37.70;;;;;;1935763;74;21077;-48
2021/07/09 07:38:49;;;;;;;6.12;2.40;;;29.30;38.40;;;;;;1947055;74;21042;-51
2021/07/09 07:41:20;;;;;;;3.40;2.10;;;29.40;38.30;;;;;;1948815;74;21046;-51
2021/07/09 07:43:49;;;;;;;8.00;2.95;;;29.50;37.50;;;;;;1948681;74;20999;-49
2021/07/09 07:46:18;;;;;;;12.93;3.58;;;29.60;37.40;;;;;;1948637;73;21027;-52
2021/07/09 07:48:48;;;;;;;12.07;4.30;;;29.60;37.60;;;;;;1948656;74;21034;-49
2021/07/09 07:51:17;;;;;;;4.95;2.52;;;29.70;38.00;;;;;;1948762;73;21058;-51
2021/07/09 07:53:47;;;;;;;5.35;3.02;;;29.80;37.10;;;;;;1948861;74;21038;-51
2021/07/09 07:56:17;;;;;;;4.97;2.65;;;29.80;36.50;;;;;;1948702;74;21076;-51
2021/07/09 07:58:51;;;;;;;4.53;3.27;;;29.80;35.80;;;;;;1948694;74;21018;-48
2021/07/09 08:01:18;;;;;;;6.47;2.85;;;29.80;36.40;;;;;;1948487;74;21112;-49
2021/07/09 08:03:48;;;;;;;7.72;3.30;;;29.80;35.20;;;;;;1948889;74;21018;-51
2021/07/09 08:06:17;;;;;;;11.95;3.83;;;29.80;35.80;;;;;;1948707;74;21120;-49
2021/07/09 08:08:46;;;;;;;4.62;3.12;;;29.80;36.30;;;;;;1948790;74;20999;-49
2021/07/09 08:11:16;;;;;;;5.78;2.72;;;29.90;36.80;;;;;;1948674;74;21022;-51
2021/07/09 08:13:45;;;;;;;6.17;2.60;;;30.00;36.20;;;;;;1948810;74;21108;-51
2021/07/09 08:16:14;;;;;;;9.88;2.77;;;30.00;35.00;;;;;;1948854;74;21022;-48
2021/07/09 08:18:43;;;;;;;8.70;2.30;;;30.00;34.60;;;;;;1948752;74;20990;-51
2021/07/09 08:21:13;;;;;;;4.97;2.33;;;30.10;34.70;;;;;;1948769;74;21022;-51
2021/07/09 08:23:42;;;;;;;6.17;2.10;;;30.10;34.30;;;;;;1948763;74;21101;-52
2021/07/09 08:26:12;;;;;;;10.13;3.45;;;30.10;34.30;;;;;;1948725;74;21027;-52
2021/07/09 08:28:42;;;;;;;9.03;3.37;;;30.10;34.40;;;;;;1948697;74;21011;-50
2021/07/09 08:31:11;;;;;;;8.93;3.08;;;30.20;34.90;;;;;;1948702;74;21093;-48
2021/07/09 08:33:40;;;;;;;9.80;2.37;;;30.20;33.10;;;;;;1948645;74;21047;-50
2021/07/09 08:36:10;;;;;;;5.45;2.90;;;30.20;33.00;;;;;;1948738;74;21030;-50
2021/07/09 08:38:39;;;;;;;10.55;2.85;;;30.20;33.40;;;;;;1941763;74;21070;-51
2021/07/09 08:41:10;;;;;;;11.03;3.37;;;30.20;32.50;;;;;;1935552;74;21101;-49
2021/07/09 08:43:39;;;;;;;5.40;2.50;;;30.20;33.00;;;;;;1935471;74;21120;-51
2021/07/09 08:46:09;;;;;;;7.10;2.60;;;30.20;32.60;;;;;;1935462;74;21051;-51
2021/07/09 08:48:40;;;;;;;12.15;2.50;;;30.30;32.80;;;;;;1931435;74;21220;-52
2021/07/09 08:51:10;;;;;;;5.10;2.22;;;30.30;32.90;;;;;;1916312;74;21101;-50
2021/07/09 08:53:40;;;;;;;10.68;2.40;;;30.40;33.10;;;;;;1901605;75;21030;-53
2021/07/09 08:56:09;;;;;;;3.85;2.60;;;30.40;32.80;;;;;;1927793;74;21097;-51
2021/07/09 08:58:39;;;;;;;8.18;2.70;;;30.50;32.60;;;;;;1935261;74;21067;-53
2021/07/09 09:01:10;;;;;;;4.47;2.40;;;30.50;32.90;;;;;;1935530;74;20995;-52
2021/07/09 09:03:39;;;;;;;4.87;2.42;;;30.50;33.50;;;;;;1935600;74;21081;-52
2021/07/09 09:06:16;;;;;;;7.15;2.98;;;30.60;33.40;;;;;;1935264;74;21092;-50
2021/07/09 09:08:45;;;;;;;7.58;2.90;;;30.60;32.70;;;;;;1935612;74;20999;-53
2021/07/09 09:11:15;;;;;;;3.98;2.47;;;30.70;33.60;;;;;;1935573;74;21015;-52
2021/07/09 09:13:45;;;;;;;4.15;1.72;;;30.70;32.30;;;;;;1935360;74;21151;-53
2021/07/09 09:16:15;;;;;;;6.45;2.08;;;30.80;31.60;;;;;;1935546;74;21092;-53
2021/07/09 09:18:49;;;;;;;4.60;2.25;;;30.80;32.40;;;;;;1935621;74;21196;-50
2021/07/09 09:21:21;;;;;;;4.62;2.50;;;30.80;32.40;;;;;;1935809;74;21047;-54
2021/07/09 09:23:53;;;;;;;5.33;3.10;;;30.80;32.70;;;;;;1935471;74;21555;-53
2021/07/09 09:26:53;;;;;;;8.38;3.17;;;30.80;33.00;;;;;;1935072;74;21560;-53
2021/07/09 09:29:30;;;;;;;8.48;3.58;;;30.80;33.00;;;;;;1935427;74;21019;-53
2021/07/09 09:32:07;;;;;;;7.53;2.87;;;30.90;33.30;;;;;;1935679;74;21499;-53
2021/07/09 09:34:50;;;;;;;8.75;2.77;;;30.90;32.40;;;;;;1935225;74;21100;-53
2021/07/09 09:37:23;;;;;;;5.05;2.65;;;31.00;32.20;;;;;;1935512;74;21082;-53
2021/07/09 09:39:52;;;;;;;4.80;2.12;;;30.90;32.60;;;;;;1929950;73;21185;-54
2021/07/09 09:42:25;;;;;;;5.78;2.30;;;31.00;32.80;;;;;;1906041;74;21128;-52
2021/07/09 09:44:57;;;;;;;6.75;2.70;;;31.10;33.30;;;;;;1905236;74;21023;-53
2021/07/09 09:47:28;;;;;;;11.60;2.80;;;31.10;32.80;;;;;;1835481;77;21056;-53
2021/07/09 09:49:59;;;;;;;8.18;3.00;;;31.10;33.00;;;;;;1931918;74;21101;-52
2021/07/09 09:52:37;;;;;;;6.40;2.45;;;31.10;33.50;;;;;;1935142;74;21086;-53
2021/07/09 09:55:09;;;;;;;7.50;2.85;;;31.10;32.80;;;;;;1935635;74;21073;-54
2021/07/09 09:57:39;;;;;;;12.05;2.33;;;31.20;33.40;;;;;;1935335;74;21078;-54
2021/07/09 10:00:16;;;;;;;4.97;2.55;;;31.20;32.90;;;;;;1935703;74;21074;-53
2021/07/09 10:02:47;;;;;;;8.30;3.33;;;31.20;33.30;;;;;;1935833;74;21015;-52
2021/07/09 10:05:16;;;;;;;4.70;2.40;;;31.20;33.80;;;;;;1935344;74;21144;-53
2021/07/09 10:07:46;;;;;;;5.50;2.42;;;31.20;34.30;;;;;;1935643;74;21088;-53
2021/07/09 10:10:17;;;;;;;6.42;2.55;;;31.30;33.60;;;;;;1935791;74;21118;-54
2021/07/09 10:12:49;;;;;;;5.40;2.22;;;31.20;33.50;;;;;;1935834;74;21031;-53
2021/07/09 10:15:19;;;;;;;11.30;4.60;;;31.20;33.80;;;;;;1935818;74;21101;-52
2021/07/09 10:17:54;;;;;;;5.92;1.98;;;31.20;34.40;;;;;;1935818;74;21078;-53
2021/07/09 10:20:24;;;;;;;8.10;2.62;;;31.20;34.80;;;;;;1935639;74;21531;-54
2021/07/09 10:22:55;;;;;;;7.60;3.20;;;31.20;35.50;;;;;;1935690;74;21027;-54
2021/07/09 10:25:25;;;;;;;11.97;2.87;;;31.30;35.00;;;;;;1935567;74;21023;-53
2021/07/09 10:27:55;;;;;;;6.35;2.70;;;31.30;34.90;;;;;;1935818;74;21093;-53
2021/07/09 10:30:25;;;;;;;5.95;3.15;;;31.40;34.00;;;;;;1935620;74;21027;-53
2021/07/09 10:32:55;;;;;;;6.25;3.08;;;31.50;34.10;;;;;;1934335;74;20996;-52
2021/07/09 10:35:41;;;;;;;9.30;2.62;;;31.50;33.80;;;;;;1935632;74;20995;-52
2021/07/09 10:38:09;;;;;;;;;;;31.50;34.00;;;;;;1938589;74;21019;-53
2021/07/09 10:40:39;;;;;;;5.58;2.02;;;31.50;33.30;;;;;;1944168;74;20187;-53
2021/07/09 10:43:13;;;;;;;5.17;2.50;;;31.50;33.90;;;;;;1948823;73;21023;-53
2021/07/09 10:45:45;;;;;;;5.65;2.37;;;31.60;33.50;;;;;;1948979;74;21081;-53
2021/07/09 10:48:19;;;;;;;9.35;2.67;;;31.60;33.50;;;;;;1948876;74;21034;-53
2021/07/09 10:50:53;;;;;;;4.45;2.22;;;31.60;33.50;;;;;;1948859;74;21086;-53
2021/07/09 10:53:30;;;;;;;13.00;2.70;;;31.60;33.90;;;;;;1948765;74;21038;-53
2021/07/09 10:56:13;;;;;;;2.92;2.20;;;31.70;33.70;;;;;;1948846;74;21042;-53
2021/07/09 10:58:42;;;;;;;9.80;2.40;;;31.70;33.00;;;;;;1946947;74;21100;-54
2021/07/09 11:01:16;;;;;;;16.55;2.85;;;31.70;33.20;;;;;;1948895;73;21027;-53
2021/07/09 11:03:57;;;;;;;3.33;1.72;;;31.80;33.70;;;;;;1948966;74;21019;-53
2021/07/09 11:06:42;;;;;;;4.92;2.52;;;31.80;32.70;;;;;;1948742;74;21031;-53
2021/07/09 11:09:11;;;;;;;;;;;31.80;32.90;;;;;;1951330;73;21100;-53
2021/07/09 11:11:47;;;;;;;6.62;2.60;;;31.80;32.90;;;;;;1948879;74;20108;-53
2021/07/09 11:14:20;;;;;;;9.98;2.70;;;31.80;32.40;;;;;;1914179;74;21026;-53
2021/07/09 11:17:02;;;;;;;8.68;2.45;;;31.80;32.30;;;;;;1948750;73;21090;-53
2021/07/09 11:19:24;;;;;;;;;;;31.80;32.30;;;;;;1949616;74;21100;-54
2021/07/09 11:21:55;;;;;;;3.87;2.40;;;31.80;30.60;;;;;;1948128;73;20105;-53
2021/07/09 11:24:33;;;;;;;9.05;2.50;;;31.80;32.10;;;;;;1948808;74;21088;-53
2021/07/09 11:27:05;;;;;;;7.58;2.50;;;31.80;32.00;;;;;;1948710;74;21031;-52
2021/07/09 11:29:37;;;;;;;10.95;2.58;;;31.80;32.00;;;;;;1948745;74;21023;-54
2021/07/09 11:32:11;;;;;;;3.02;2.25;;;31.90;32.80;;;;;;1948896;74;21156;-54
2021/07/09 11:34:53;;;;;;;;;;;31.90;32.40;;;;;;1951671;74;21027;-53
2021/07/09 11:37:27;;;;;;;6.58;2.40;;;31.90;32.40;;;;;;1948817;74;20093;-54
2021/07/09 11:40:06;;;;;;;7.87;3.15;;;32.00;32.20;;;;;;1948241;73;20995;-54
2021/07/09 11:42:35;;;;;;;7.75;2.87;;;32.00;32.10;;;;;;1942693;73;21101;-54
2021/07/09 11:45:12;;;;;;;6.78;2.17;;;32.00;32.10;;;;;;1943107;74;21054;-54
2021/07/09 11:47:43;;;;;;;8.53;2.42;;;32.10;32.10;;;;;;1943156;74;21023;-54
2021/07/09 11:50:14;;;;;;;5.72;2.08;;;32.20;32.50;;;;;;1943029;74;20991;-52
2021/07/09 11:52:52;;;;;;;6.00;2.20;;;32.20;32.30;;;;;;1943162;73;21111;-53
2021/07/09 11:55:28;;;;;;;5.78;2.30;;;32.20;32.30;;;;;;1943154;74;21511;-54
2021/07/09 11:57:54;;;;;;;4.17;2.37;;;32.20;32.30;;;;;;1942511;74;21105;-53
2021/07/09 12:00:24;;;;;;;2.40;1.72;;;32.20;32.60;;;;;;1943205;74;21042;-53
2021/07/09 12:02:54;;;;;;;7.75;2.47;;;32.30;31.30;;;;;;1943169;74;21028;-52
2021/07/09 12:05:24;;;;;;;5.60;2.12;;;32.20;32.30;;;;;;1943164;74;21031;-53
2021/07/09 12:07:59;;;;;;;7.75;2.37;;;32.30;32.80;;;;;;1943301;74;20991;-53
2021/07/09 12:10:33;;;;;;;6.35;2.65;;;32.30;33.00;;;;;;1943125;74;20995;-53
2021/07/09 12:13:05;;;;;;;5.53;2.62;;;32.30;31.70;;;;;;1943178;74;21023;-52
2021/07/09 12:15:40;;;;;;;5.65;2.27;;;32.30;32.10;;;;;;1943161;74;21080;-53
2021/07/09 12:18:14;;;;;;;5.25;2.35;;;32.20;32.20;;;;;;1943130;73;21019;-51
2021/07/09 12:20:49;;;;;;;4.10;2.47;;;32.30;32.30;;;;;;1943119;74;21019;-52
2021/07/09 12:23:22;;;;;;;7.12;2.15;;;32.30;32.30;;;;;;1943049;74;21059;-49
2021/07/09 12:25:54;;;;;;;9.85;2.83;;;32.30;31.10;;;;;;1943445;74;21018;-53
2021/07/09 12:28:29;;;;;;;2.90;2.20;;;32.30;31.30;;;;;;1943131;74;21027;-52
2021/07/09 12:31:03;;;;;;;5.58;2.50;;;32.20;31.70;;;;;;1943214;74;21038;-54
2021/07/09 12:33:36;;;;;;;4.42;2.40;;;32.20;31.70;;;;;;1943151;74;21018;-52
2021/07/09 12:36:07;;;;;;;4.50;2.42;;;32.20;30.90;;;;;;1943351;74;21030;-52
2021/07/09 12:38:39;;;;;;;7.37;3.45;;;32.20;31.00;;;;;;1943292;74;21019;-53
2021/07/09 12:41:11;;;;;;;3.98;2.08;;;32.20;31.20;;;;;;1936913;73;21098;-53
2021/07/09 12:43:51;;;;;;;9.48;2.95;;;32.30;30.30;;;;;;1943358;73;21003;-53
2021/07/09 12:46:22;;;;;;;4.50;2.83;;;32.30;30.70;;;;;;1943205;74;20999;-53
2021/07/09 12:49:05;;;;;;;7.47;3.35;;;32.30;30.80;;;;;;1943231;74;21003;-53
2021/07/09 12:51:36;;;;;;;6.80;2.80;;;32.20;31.00;;;;;;1943265;74;21014;-52
2021/07/09 12:54:13;;;;;;;7.72;3.12;;;32.30;31.30;;;;;;1943368;73;21477;-52
2021/07/09 12:56:48;;;;;;;4.92;2.70;;;32.30;31.40;;;;;;1943229;74;21429;-53
2021/07/09 12:59:21;;;;;;;7.40;3.30;;;32.30;31.90;;;;;;1943245;74;21027;-53
2021/07/09 13:02:07;;;;;;;7.03;2.90;;;32.30;32.40;;;;;;1943518;74;21066;-53
2021/07/09 13:04:39;;;;;;;5.03;2.77;;;32.40;32.90;;;;;;1943306;73;21092;-52